Time;durP1;ratioP1;P1;durP2;ratioP2;P2;SDS_P1;SDS_P2;PMS_P1;PMS_P2;Temp;Humidity;BMP_temperature;BMP_pressure;BME280_temperature;BME280_humidity;BME280_pressure;Samples;Min_cycle;Max_cycle;Signal;HPM_P1;HPM_P2
2022/10/11 00:04:15;;;;;;;;;;;9.80;99.90;;;;;;12449977;28;19933;-80
2022/10/11 00:10:17;;;;;;;;;;;9.80;99.90;;;;;;12455792;28;19937;-80
2022/10/11 00:16:19;;;;;;;;;;;9.60;99.90;;;;;;12454102;28;20012;-80
2022/10/11 00:22:21;;;;;;;;;;;9.60;99.90;;;;;;12447942;28;19970;-80
2022/10/11 00:28:23;;;;;;;;;;;9.60;99.90;;;;;;12464192;28;19925;-80
2022/10/11 00:34:25;;;;;;;;;;;9.50;99.90;;;;;;12478176;28;20396;-80
2022/10/11 00:40:26;;;;;;;;;;;9.50;99.90;;;;;;12471069;28;19928;-80
2022/10/11 00:46:29;;;;;;;;;;;9.50;99.90;;;;;;12492132;28;20361;-81
2022/10/11 00:52:36;;;;;;;;;;;9.50;99.90;;;;;;12515529;28;20001;-82
2022/10/11 00:58:39;;;;;;;;;;;9.40;99.90;;;;;;12510050;28;19921;-82
2022/10/11 01:04:41;;;;;;;;;;;9.30;99.90;;;;;;12518458;28;19936;-81
2022/10/11 01:10:43;;;;;;;;;;;9.10;99.90;;;;;;12517552;28;19960;-80
2022/10/11 01:16:57;;;;;;;;;;;9.20;99.90;;;;;;12469089;28;19929;-80
2022/10/11 01:23:17;;;;;;;;;;;9.10;99.90;;;;;;12481939;28;20392;-80
2022/10/11 01:29:37;;;;;;;;;;;9.00;99.90;;;;;;12471533;28;19926;-80
2022/10/11 01:35:42;;;;;;;;;;;8.90;99.90;;;;;;12482023;28;19929;-80
2022/10/11 01:41:48;;;;;;;;;;;8.80;99.90;;;;;;12478350;28;19925;-80
2022/10/11 01:48:03;;;;;;;;;;;8.80;99.90;;;;;;12468718;28;19936;-80
2022/10/11 01:54:08;;;;;;;;;;;8.70;99.90;;;;;;12473977;28;19930;-80
2022/10/11 02:00:12;;;;;;;;;;;8.60;99.90;;;;;;12462085;28;19932;-80
2022/10/11 02:06:19;;;;;;;;;;;8.50;99.90;;;;;;12476205;28;19929;-80
2022/10/11 02:12:24;;;;;;;;;;;8.50;99.90;;;;;;12481144;28;19925;-80
2022/10/11 02:18:27;;;;;;;;;;;8.60;99.90;;;;;;12477903;28;19925;-81
2022/10/11 02:24:31;;;;;;;;;;;8.50;99.90;;;;;;12466719;28;19925;-81
2022/10/11 02:30:33;;;;;;;;;;;8.60;99.90;;;;;;12469739;28;19930;-80
2022/10/11 02:36:46;;;;;;;;;;;8.60;99.90;;;;;;12487951;28;19924;-81
2022/10/11 02:42:50;;;;;;;;;;;8.60;99.90;;;;;;12481871;28;19925;-80
2022/10/11 02:48:52;;;;;;;;;;;8.70;99.90;;;;;;12479367;28;20012;-81
2022/10/11 02:54:53;;;;;;;;;;;8.70;99.90;;;;;;12476102;28;19925;-80
2022/10/11 03:00:55;;;;;;;;;;;8.70;99.90;;;;;;12490855;28;19933;-80
2022/10/11 03:06:57;;;;;;;;;;;8.90;99.90;;;;;;12485602;28;19990;-81
2022/10/11 03:12:59;;;;;;;;;;;9.00;99.90;;;;;;12475264;28;19925;-80
2022/10/11 03:19:01;;;;;;;;;;;9.00;99.90;;;;;;12471974;28;19926;-81
2022/10/11 03:25:02;;;;;;;;;;;8.70;99.90;;;;;;12469316;28;19929;-80
2022/10/11 03:31:05;;;;;;;;;;;8.70;99.90;;;;;;12459983;28;20410;-80
2022/10/11 03:37:07;;;;;;;;;;;8.60;99.90;;;;;;12476973;28;19933;-81
2022/10/11 03:43:09;;;;;;;;;;;8.50;99.90;;;;;;12462551;28;19929;-80
2022/10/11 03:49:10;;;;;;;;;;;8.50;99.90;;;;;;12460494;28;19925;-80
2022/10/11 03:55:12;;;;;;;;;;;8.40;99.90;;;;;;12463332;28;19925;-80
2022/10/11 04:01:14;;;;;;;;;;;8.50;99.90;;;;;;12439093;28;19932;-81
2022/10/11 04:07:16;;;;;;;;;;;8.40;99.90;;;;;;12460404;28;19929;-80
2022/10/11 04:13:17;;;;;;;;;;;8.50;99.90;;;;;;12462448;28;19929;-80
2022/10/11 04:19:19;;;;;;;;;;;9.10;99.90;;;;;;12468385;28;19925;-80
2022/10/11 04:25:21;;;;;;;;;;;8.90;99.90;;;;;;12446241;28;19929;-80
2022/10/11 04:31:23;;;;;;;;;;;8.90;99.90;;;;;;12452234;28;20012;-80
2022/10/11 04:37:24;;;;;;;;;;;8.80;99.90;;;;;;12458343;28;19936;-80
2022/10/11 04:43:26;;;;;;;;;;;8.90;99.90;;;;;;12452273;28;20049;-80
2022/10/11 04:49:28;;;;;;;;;;;8.90;99.90;;;;;;12467690;28;19936;-80
2022/10/11 04:55:29;;;;;;;;;;;8.70;99.90;;;;;;12446803;28;19929;-81
2022/10/11 05:01:31;;;;;;;;;;;8.40;99.90;;;;;;12460279;28;19925;-80
2022/10/11 05:07:33;;;;;;;;;;;8.40;99.90;;;;;;12464504;28;20420;-80
2022/10/11 05:13:35;;;;;;;;;;;8.20;99.90;;;;;;12444658;28;19936;-81
2022/10/11 05:19:37;;;;;;;;;;;8.30;99.90;;;;;;12465717;28;19937;-80
2022/10/11 05:25:38;;;;;;;;;;;8.40;99.90;;;;;;12444444;28;19941;-80
2022/10/11 05:31:41;;;;;;;;;;;8.40;99.90;;;;;;12452128;28;20296;-80
2022/10/11 05:37:43;;;;;;;;;;;8.00;99.90;;;;;;12464904;28;19930;-80
2022/10/11 05:43:45;;;;;;;;;;;7.40;99.90;;;;;;12470387;28;19930;-81
2022/10/11 05:49:46;;;;;;;;;;;7.20;99.90;;;;;;12476388;28;19933;-81
2022/10/11 05:55:48;;;;;;;;;;;7.70;99.90;;;;;;12436462;28;19926;-81
2022/10/11 06:01:50;;;;;;;;;;;7.60;99.90;;;;;;12470835;28;19933;-81
2022/10/11 06:07:51;;;;;;;;;;;7.50;99.90;;;;;;12462286;28;19925;-81
2022/10/11 06:13:54;;;;;;;;;;;7.40;99.90;;;;;;12469927;28;19932;-81
2022/10/11 06:19:55;;;;;;;;;;;7.40;99.90;;;;;;12467963;28;19929;-80
2022/10/11 06:26:00;;;;;;;;;;;7.40;99.90;;;;;;12444735;28;19936;-80
2022/10/11 06:32:03;;;;;;;;;;;7.30;99.90;;;;;;12439806;28;20415;-80
2022/10/11 06:38:04;;;;;;;;;;;7.50;99.90;;;;;;12466621;28;19933;-80
2022/10/11 06:44:08;;;;;;;;;;;7.40;99.90;;;;;;12471580;28;19926;-81
2022/10/11 06:50:14;;;;;;;;;;;7.80;99.90;;;;;;12453593;28;20034;-80
2022/10/11 06:56:16;;;;;;;;;;;7.60;99.90;;;;;;12449718;28;19925;-80
2022/10/11 07:02:18;;;;;;;;;;;7.70;99.90;;;;;;12463600;28;19925;-80
2022/10/11 07:08:19;;;;;;;;;;;7.90;99.90;;;;;;12464749;28;20289;-80
2022/10/11 07:14:21;;;;;;;;;;;7.90;99.90;;;;;;12457713;28;19925;-80
2022/10/11 07:20:23;;;;;;;;;;;8.00;99.90;;;;;;12457118;28;19929;-80
2022/10/11 07:26:25;;;;;;;;;;;7.90;99.90;;;;;;12463483;28;19929;-81
2022/10/11 07:32:26;;;;;;;;;;;7.90;99.90;;;;;;12474533;28;19936;-80
2022/10/11 07:38:28;;;;;;;;;;;8.00;99.90;;;;;;12457792;28;19933;-80
2022/10/11 07:44:30;;;;;;;;;;;8.10;99.90;;;;;;12448664;28;19983;-80
2022/10/11 07:50:32;;;;;;;;;;;8.20;99.90;;;;;;12453901;28;20348;-80
2022/10/11 07:56:35;;;;;;;;;;;8.30;99.90;;;;;;12448771;28;19925;-80
2022/10/11 08:02:37;;;;;;;;;;;8.40;99.90;;;;;;12461418;28;19936;-80
2022/10/11 08:08:38;;;;;;;;;;;8.40;99.90;;;;;;12470994;28;20017;-81
2022/10/11 08:14:40;;;;;;;;;;;8.70;99.90;;;;;;12471710;28;20296;-80
2022/10/11 08:20:42;;;;;;;;;;;8.80;99.90;;;;;;12466234;28;19935;-80
2022/10/11 08:26:44;;;;;;;;;;;8.70;99.90;;;;;;12473865;28;19926;-80
2022/10/11 08:32:46;;;;;;;;;;;8.90;99.90;;;;;;12419741;28;19926;-80
2022/10/11 08:38:47;;;;;;;;;;;9.00;99.90;;;;;;12414002;28;19925;-80
2022/10/11 08:44:51;;;;;;;;;;;9.20;99.90;;;;;;12434115;28;19932;-80
2022/10/11 08:51:21;;;;;;;;;;;9.40;99.90;;;;;;12419889;28;19932;-81
2022/10/11 08:57:24;;;;;;;;;;;9.80;99.90;;;;;;12410754;28;19926;-80
2022/10/11 09:03:37;;;;;;;;;;;10.00;99.90;;;;;;12424181;28;19936;-80
2022/10/11 09:09:45;;;;;;;;;;;10.10;99.90;;;;;;12421559;28;19936;-80
2022/10/11 09:15:46;;;;;;;;;;;10.40;99.90;;;;;;12419083;28;20309;-80
2022/10/11 09:21:48;;;;;;;;;;;10.40;99.90;;;;;;12422840;28;19929;-81
2022/10/11 09:28:09;;;;;;;;;;;10.70;99.90;;;;;;12413961;28;19926;-81
2022/10/11 09:34:12;;;;;;;;;;;10.70;99.90;;;;;;12460921;28;19925;-80
2022/10/11 09:40:21;;;;;;;;;;;11.20;99.90;;;;;;12462858;28;20181;-80
2022/10/11 09:46:31;;;;;;;;;;;11.40;99.90;;;;;;12454919;28;19932;-80
2022/10/11 09:52:33;;;;;;;;;;;11.60;99.90;;;;;;12453123;28;20266;-80
2022/10/11 09:58:34;;;;;;;;;;;11.70;99.90;;;;;;12452075;28;19933;-81
2022/10/11 10:04:52;;;;;;;;;;;11.80;99.90;;;;;;12456939;28;19926;-81
2022/10/11 10:10:57;;;;;;;;;;;12.10;99.90;;;;;;12465185;28;20298;-80
2022/10/11 10:17:13;;;;;;;;;;;12.30;99.90;;;;;;12468097;28;20452;-80
2022/10/11 10:23:23;;;;;;;;;;;12.30;99.90;;;;;;12473810;28;19929;-80
2022/10/11 10:29:25;;;;;;;;;;;12.40;99.90;;;;;;12465473;28;20394;-80
2022/10/11 10:35:36;;;;;;;;;;;12.70;99.90;;;;;;12469595;28;20893;-80
2022/10/11 10:41:38;;;;;;;;;;;12.90;99.90;;;;;;12473722;28;19929;-80
2022/10/11 10:47:52;;;;;;;;;;;13.00;99.90;;;;;;12470094;28;19932;-81
2022/10/11 10:54:13;;;;;;;;;;;13.20;99.90;;;;;;12464552;28;19932;-80
2022/10/11 11:00:18;;;;;;;;;;;13.60;99.90;;;;;;12450532;28;19929;-81
2022/10/11 11:06:22;;;;;;;;;;;13.40;99.90;;;;;;12471789;28;20327;-81
2022/10/11 11:12:24;;;;;;;;;;;13.40;99.90;;;;;;12457522;28;19925;-80
2022/10/11 11:18:27;;;;;;;;;;;13.40;99.90;;;;;;12472156;28;19967;-81
2022/10/11 11:24:40;;;;;;;;;;;13.70;99.90;;;;;;12471252;28;20399;-81
2022/10/11 11:30:51;;;;;;;;;;;13.90;99.90;;;;;;12473440;28;20308;-81
2022/10/11 11:37:05;;;;;;;;;;;13.90;99.90;;;;;;12450703;28;19932;-81
2022/10/11 11:43:27;;;;;;;;;;;14.00;99.90;;;;;;12475372;28;19962;-81
2022/10/11 11:49:28;;;;;;;;;;;13.40;99.90;;;;;;12459868;28;19929;-80
2022/10/11 11:55:50;;;;;;;;;;;13.50;99.90;;;;;;12451750;28;20404;-80
2022/10/11 12:02:12;;;;;;;;;;;14.10;99.90;;;;;;12459833;28;19926;-80
2022/10/11 12:08:24;;;;;;;;;;;14.10;99.90;;;;;;12479006;28;20281;-81
2022/10/11 12:14:32;;;;;;;;;;;14.10;99.90;;;;;;12478312;28;19925;-80
2022/10/11 12:20:40;;;;;;;;;;;14.10;99.90;;;;;;12456539;28;19936;-81
2022/10/11 12:26:42;;;;;;;;;;;14.70;99.90;;;;;;12451171;28;19955;-80
2022/10/11 12:32:46;;;;;;;;;;;15.20;99.90;;;;;;12429722;28;19925;-80
2022/10/11 12:39:08;;;;;;;;;;;15.20;99.90;;;;;;12420925;28;19937;-80
2022/10/11 12:45:09;;;;;;;;;;;15.10;99.90;;;;;;12414172;28;20282;-80
2022/10/11 12:51:14;;;;;;;;;;;14.40;99.90;;;;;;12410610;28;19926;-80
2022/10/11 12:57:34;;;;;;;;;;;14.30;99.90;;;;;;12411088;28;19936;-80
2022/10/11 13:03:39;;;;;;;;;;;14.00;99.90;;;;;;12414486;28;19933;-80
2022/10/11 13:09:42;;;;;;;;;;;13.60;99.90;;;;;;12416151;28;20031;-80
2022/10/11 13:15:51;;;;;;;;;;;13.60;99.90;;;;;;12412789;28;19933;-80
2022/10/11 13:21:54;;;;;;;;;;;13.90;99.90;;;;;;12428314;28;19933;-80
2022/10/11 13:27:58;;;;;;;;;;;14.50;99.90;;;;;;12407208;28;20495;-80
2022/10/11 13:34:00;;;;;;;;;;;14.30;99.90;;;;;;12469102;28;19929;-80
2022/10/11 13:40:02;;;;;;;;;;;14.40;99.90;;;;;;12456094;28;19925;-80
2022/10/11 13:46:03;;;;;;;;;;;14.40;99.90;;;;;;12451573;28;19937;-80
2022/10/11 13:52:21;;;;;;;;;;;14.40;99.90;;;;;;12459349;28;19940;-80
2022/10/11 13:58:33;;;;;;;;;;;14.30;99.90;;;;;;12459358;28;19925;-80
2022/10/11 14:04:38;;;;;;;;;;;14.30;99.90;;;;;;12473443;28;19925;-80
2022/10/11 14:10:44;;;;;;;;;;;14.10;99.90;;;;;;12458173;28;19929;-80
2022/10/11 14:16:53;;;;;;;;;;;14.00;99.90;;;;;;12475748;28;19932;-80
2022/10/11 14:22:55;;;;;;;;;;;13.80;99.90;;;;;;12487364;28;19971;-80
2022/10/11 14:28:58;;;;;;;;;;;13.80;99.90;;;;;;12464594;28;19933;-80
2022/10/11 14:34:59;;;;;;;;;;;13.60;99.90;;;;;;12479059;28;19929;-80
2022/10/11 14:41:02;;;;;;;;;;;13.60;99.90;;;;;;12466017;28;20288;-80
2022/10/11 14:47:05;;;;;;;;;;;13.70;99.90;;;;;;12454294;28;20464;-80
2022/10/11 14:53:08;;;;;;;;;;;13.60;99.90;;;;;;12477873;28;20381;-80
2022/10/11 14:59:13;;;;;;;;;;;13.60;99.90;;;;;;12458383;28;19929;-80
2022/10/11 15:05:15;;;;;;;;;;;13.50;99.90;;;;;;12444979;28;19933;-81
2022/10/11 15:11:18;;;;;;;;;;;13.50;99.90;;;;;;12444672;28;19925;-80
2022/10/11 15:17:20;;;;;;;;;;;13.60;99.90;;;;;;12468721;28;20377;-80
2022/10/11 15:23:22;;;;;;;;;;;13.60;99.90;;;;;;12467997;28;20340;-80
2022/10/11 15:29:23;;;;;;;;;;;13.40;99.90;;;;;;12459829;28;19953;-81
2022/10/11 15:35:25;;;;;;;;;;;13.30;99.90;;;;;;12458985;28;19925;-80
2022/10/11 15:41:27;;;;;;;;;;;13.00;99.90;;;;;;12457508;28;19929;-80
2022/10/11 15:47:29;;;;;;;;;;;12.90;99.90;;;;;;12461346;28;20373;-80
2022/10/11 15:53:31;;;;;;;;;;;12.90;99.90;;;;;;12456984;28;20400;-80
2022/10/11 15:59:32;;;;;;;;;;;12.80;99.90;;;;;;12458820;28;20287;-80
2022/10/11 16:05:34;;;;;;;;;;;12.70;99.90;;;;;;12462084;28;20361;-81
2022/10/11 16:11:36;;;;;;;;;;;12.60;99.90;;;;;;12441637;28;19930;-81
2022/10/11 16:17:37;;;;;;;;;;;12.50;99.90;;;;;;12476172;28;19979;-80
2022/10/11 16:23:39;;;;;;;;;;;12.40;99.90;;;;;;12457911;28;19929;-80
2022/10/11 16:29:41;;;;;;;;;;;12.10;99.90;;;;;;12444000;28;19929;-82
2022/10/11 16:35:50;;;;;;;;;;;12.10;99.90;;;;;;12608035;27;19928;-36
2022/10/11 16:41:52;;;;;;;;;;;12.00;99.90;;;;;;12598725;28;20290;-36
2022/10/11 16:47:53;;;;;;;;;;;11.70;99.90;;;;;;12593708;28;19932;-36
2022/10/11 16:53:55;;;;;;;;;;;11.50;99.90;;;;;;12596467;28;19928;-36
2022/10/11 16:59:57;;;;;;;;;;;11.40;99.90;;;;;;12592623;28;19978;-36
2022/10/11 17:05:59;;;;;;;;;;;10.90;99.90;;;;;;12590130;28;19932;-36
2022/10/11 17:12:01;;;;;;;;;;;10.60;99.90;;;;;;12585557;28;19925;-36
2022/10/11 17:18:03;;;;;;;;;;;10.60;99.90;;;;;;12588232;28;19947;-36
2022/10/11 17:24:05;;;;;;;;;;;10.30;99.90;;;;;;12592270;28;19928;-36
2022/10/11 17:30:07;;;;;;;;;;;10.30;99.90;;;;;;12586625;28;20046;-36
2022/10/11 17:36:14;;;;;;;;;;;10.20;99.90;;;;;;12536335;28;19925;-36
2022/10/11 17:42:16;;;;;;;;;;;10.20;99.90;;;;;;12531535;28;20454;-36
2022/10/11 17:48:17;;;;;;;;;;;9.90;99.90;;;;;;12503990;28;20274;-36
2022/10/11 17:54:19;;;;;;;;;;;9.90;99.90;;;;;;12466938;28;19934;-37
2022/10/11 18:00:21;;;;;;;;;;;9.80;99.90;;;;;;12452129;28;20023;-36
2022/10/11 18:06:27;;;;;;;;;;;9.80;99.90;;;;;;12450796;28;20297;-36
2022/10/11 18:12:29;;;;;;;;;;;9.70;99.90;;;;;;12447667;28;20021;-36
2022/10/11 18:18:31;;;;;;;;;;;9.60;99.90;;;;;;12448941;28;19933;-36
2022/10/11 18:24:33;;;;;;;;;;;9.60;99.90;;;;;;12446055;28;19987;-36
2022/10/11 18:30:35;;;;;;;;;;;9.50;99.90;;;;;;12453723;28;19936;-36
2022/10/11 18:36:36;;;;;;;;;;;9.30;99.90;;;;;;12454581;28;20416;-37
2022/10/11 18:42:38;;;;;;;;;;;9.30;99.90;;;;;;12449631;28;20448;-36
2022/10/11 18:48:40;;;;;;;;;;;9.30;99.90;;;;;;12451383;28;19929;-36
2022/10/11 18:54:43;;;;;;;;;;;9.30;99.90;;;;;;12442438;28;19929;-36
2022/10/11 19:00:45;;;;;;;;;;;9.30;99.90;;;;;;12451787;28;20418;-36
2022/10/11 19:06:47;;;;;;;;;;;9.30;99.90;;;;;;12444390;28;19933;-36
2022/10/11 19:12:49;;;;;;;;;;;9.40;99.90;;;;;;12453420;28;19964;-36
2022/10/11 19:18:51;;;;;;;;;;;9.50;99.90;;;;;;12459702;28;19925;-36
2022/10/11 19:24:52;;;;;;;;;;;9.50;99.90;;;;;;12442268;28;20420;-36
2022/10/11 19:31:01;;;;;;;;;;;9.60;99.90;;;;;;12463767;28;20296;-36
2022/10/11 19:37:03;;;;;;;;;;;9.80;99.90;;;;;;12505263;28;20376;-36
2022/10/11 19:43:05;;;;;;;;;;;9.80;99.90;;;;;;12496523;28;19971;-36
2022/10/11 19:49:07;;;;;;;;;;;9.80;99.90;;;;;;12509906;28;19978;-36
2022/10/11 19:55:09;;;;;;;;;;;9.70;99.90;;;;;;12490712;28;19972;-36
2022/10/11 20:01:19;;;;;;;;;;;9.70;99.90;;;;;;12501998;28;20490;-36
2022/10/11 20:07:21;;;;;;;;;;;9.70;99.90;;;;;;12512162;28;19932;-36
2022/10/11 20:13:23;;;;;;;;;;;9.50;99.90;;;;;;12498381;28;19956;-36
2022/10/11 20:19:26;;;;;;;;;;;9.50;99.90;;;;;;12495458;28;19956;-36
2022/10/11 20:25:32;;;;;;;;;;;9.30;99.90;;;;;;12500025;28;19929;-36
2022/10/11 20:31:37;;;;;;;;;;;9.30;99.90;;;;;;12515518;28;19932;-36
2022/10/11 20:37:39;;;;;;;;;;;9.10;99.90;;;;;;12555733;28;19931;-36
2022/10/11 20:43:41;;;;;;;;;;;9.20;99.90;;;;;;12504448;28;19971;-36
2022/10/11 20:49:43;;;;;;;;;;;9.20;99.90;;;;;;12507239;28;20389;-36
2022/10/11 20:55:45;;;;;;;;;;;9.10;99.90;;;;;;12499030;28;19963;-36
2022/10/11 21:01:47;;;;;;;;;;;9.10;99.90;;;;;;12494241;28;19929;-36
2022/10/11 21:07:49;;;;;;;;;;;9.10;99.90;;;;;;12512285;28;20416;-36
2022/10/11 21:13:57;;;;;;;;;;;9.00;99.90;;;;;;12497860;28;19940;-36
2022/10/11 21:20:02;;;;;;;;;;;8.90;99.90;;;;;;12505880;28;20003;-36
2022/10/11 21:26:05;;;;;;;;;;;8.90;99.90;;;;;;12555943;28;20430;-36
2022/10/11 21:32:07;;;;;;;;;;;8.70;99.90;;;;;;12535440;28;19933;-36
2022/10/11 21:38:14;;;;;;;;;;;8.80;99.90;;;;;;12516606;28;19975;-36
2022/10/11 21:44:16;;;;;;;;;;;8.70;99.90;;;;;;12506130;28;19971;-36
2022/10/11 21:50:20;;;;;;;;;;;8.50;99.90;;;;;;12509066;28;19951;-36
2022/10/11 21:56:22;;;;;;;;;;;8.40;99.90;;;;;;12503007;28;19928;-36
2022/10/11 22:02:24;;;;;;;;;;;8.50;99.90;;;;;;12502981;28;19929;-36
2022/10/11 22:08:26;;;;;;;;;;;8.60;99.90;;;;;;12496526;28;19924;-36
2022/10/11 22:14:28;;;;;;;;;;;8.50;99.90;;;;;;12505416;28;20376;-36
2022/10/11 22:20:31;;;;;;;;;;;8.40;99.90;;;;;;12505128;28;19926;-36
2022/10/11 22:26:33;;;;;;;;;;;8.30;99.90;;;;;;12501918;28;19929;-36
2022/10/11 22:32:36;;;;;;;;;;;8.40;99.90;;;;;;12493021;28;19933;-37
2022/10/11 22:38:40;;;;;;;;;;;8.30;99.90;;;;;;12504264;28;20039;-36
2022/10/11 22:44:42;;;;;;;;;;;8.20;99.90;;;;;;12509641;28;20400;-37
2022/10/11 22:50:44;;;;;;;;;;;8.20;99.90;;;;;;12498456;28;20284;-37
2022/10/11 22:56:46;;;;;;;;;;;8.10;99.90;;;;;;12499765;28;19936;-37
2022/10/11 23:02:48;;;;;;;;;;;8.10;99.90;;;;;;12499039;28;20387;-36
2022/10/11 23:08:50;;;;;;;;;;;8.10;99.90;;;;;;12503948;28;19925;-36
2022/10/11 23:14:52;;;;;;;;;;;7.90;99.90;;;;;;12500103;28;19925;-36
2022/10/11 23:20:54;;;;;;;;;;;7.90;99.90;;;;;;12502966;28;20011;-36
2022/10/11 23:26:55;;;;;;;;;;;7.80;99.90;;;;;;12500671;28;19925;-36
2022/10/11 23:32:57;;;;;;;;;;;7.80;99.90;;;;;;12501371;28;19925;-36
2022/10/11 23:38:59;;;;;;;;;;;7.50;99.90;;;;;;12506576;28;19928;-36
2022/10/11 23:45:01;;;;;;;;;;;7.80;99.90;;;;;;12483222;28;19925;-36
2022/10/11 23:51:02;;;;;;;;;;;7.90;99.90;;;;;;12509796;28;20373;-35
2022/10/11 23:57:04;;;;;;;;;;;7.80;99.90;;;;;;12502456;28;19978;-36
